MUH weather

Mersa Matruh Airport
Mersa Matruh, Matruh Governorate, Egypt

Public forecast

Using degrees Celsius for public forecast. Weather courtesy of forecast.io.

Current aviation weather report (METAR) for Mersa Matruh Airport

Retrieved 2019/10/23 05:00 UTC (2 hours ago):

HEMM 230500Z 26003KT 9999 SCT020 19/16 Q1013 NOSIG

Aviation forecast (TAF) for Mersa Matruh Airport

Retrieved 2019/10/23 06:18 UTC (33 minutes ago):

TAF HEMM 230500Z 2306/2412 34012KT 9999 SCT020